Time;durP1;ratioP1;P1;durP2;ratioP2;P2;SDS_P1;SDS_P2;PMS_P1;PMS_P2;Temp;Humidity;BMP_temperature;BMP_pressure;BME280_temperature;BME280_humidity;BME280_pressure;Samples;Min_cycle;Max_cycle;Signal;HPM_P1;HPM_P2
2023/04/27 00:00:35;;;;;;;3.90;2.63;;;;;9.60;101924.00;;;;5069179;28;20238;-76
2023/04/27 00:03:04;;;;;;;3.97;2.75;;;;;9.60;101935.00;;;;5063109;28;20203;-76
2023/04/27 00:05:35;;;;;;;7.47;3.47;;;;;9.50;101935.00;;;;5049357;28;20233;-76
2023/04/27 00:08:02;;;;;;;5.82;3.08;;;;;9.50;101933.00;;;;5049437;28;20192;-76
2023/04/27 00:10:29;;;;;;;4.75;3.10;;;;;9.50;101928.00;;;;5062327;28;20573;-76
2023/04/27 00:12:57;;;;;;;5.13;2.90;;;;;9.50;101934.00;;;;5068790;28;20684;-76
2023/04/27 00:15:24;;;;;;;4.40;2.88;;;;;9.50;101938.00;;;;5069135;28;20194;-76
2023/04/27 00:17:51;;;;;;;2.50;1.98;;;;;9.40;101935.00;;;;5068015;28;20226;-75
2023/04/27 00:20:19;;;;;;;4.50;3.00;;;;;9.40;101935.00;;;;5068954;28;20210;-76
2023/04/27 00:22:48;;;;;;;4.03;2.33;;;;;9.40;101939.00;;;;5059165;28;20200;-76
2023/04/27 00:25:15;;;;;;;4.05;2.80;;;;;9.40;101932.00;;;;5048646;28;20222;-76
2023/04/27 00:27:42;;;;;;;2.67;2.38;;;;;9.40;101931.00;;;;5049291;28;20199;-75
2023/04/27 00:30:10;;;;;;;3.47;2.38;;;;;9.30;101937.00;;;;5048736;28;20211;-75
2023/04/27 00:32:38;;;;;;;3.78;2.63;;;;;9.30;101935.00;;;;5047648;28;20357;-76
2023/04/27 00:35:06;;;;;;;5.05;2.22;;;;;9.30;101930.00;;;;5048521;28;20203;-76
2023/04/27 00:37:33;;;;;;;3.70;2.65;;;;;9.30;101927.00;;;;5049123;28;20223;-76
2023/04/27 00:40:03;;;;;;;7.10;2.97;;;;;9.20;101924.00;;;;5048975;28;20198;-76
2023/04/27 00:42:31;;;;;;;6.07;3.15;;;;;9.20;101929.00;;;;5048406;28;20635;-76
2023/04/27 00:44:58;;;;;;;5.97;2.92;;;;;9.20;101926.00;;;;5048387;28;20203;-75
2023/04/27 00:47:26;;;;;;;5.75;3.10;;;;;9.20;101931.00;;;;5048780;28;20199;-75
2023/04/27 00:49:53;;;;;;;5.78;3.30;;;;;9.20;101924.00;;;;5048177;28;20196;-76
2023/04/27 00:52:20;;;;;;;3.40;2.42;;;;;9.10;101924.00;;;;5047719;28;20226;-75
2023/04/27 00:54:50;;;;;;;3.88;2.60;;;;;9.10;101925.00;;;;5057200;28;20206;-76
2023/04/27 00:57:20;;;;;;;3.60;3.08;;;;;9.10;101930.00;;;;5068672;28;20680;-76
2023/04/27 00:59:47;;;;;;;3.70;2.85;;;;;9.10;101925.00;;;;5068210;28;20691;-75
2023/04/27 01:02:15;;;;;;;4.05;2.65;;;;;9.10;101915.00;;;;5067239;28;20240;-76
2023/04/27 01:04:43;;;;;;;5.40;3.10;;;;;9.00;101912.00;;;;5067404;28;20198;-75
2023/04/27 01:07:10;;;;;;;4.70;2.85;;;;;9.00;101915.00;;;;5068738;28;20354;-76
2023/04/27 01:09:37;;;;;;;4.65;3.10;;;;;9.00;101907.00;;;;5068090;28;20199;-76
2023/04/27 01:12:05;;;;;;;6.25;3.75;;;;;9.00;101905.00;;;;5068726;28;20202;-76
2023/04/27 01:14:35;;;;;;;4.00;3.00;;;;;9.00;101909.00;;;;5059887;28;20578;-75
2023/04/27 01:17:03;;;;;;;4.88;2.80;;;;;9.00;101906.00;;;;5067648;28;20211;-75
2023/04/27 01:19:30;;;;;;;4.50;3.38;;;;;8.90;101911.00;;;;5067814;28;20230;-75
2023/04/27 01:21:57;;;;;;;3.47;2.72;;;;;8.90;101914.00;;;;5068320;28;20207;-76
2023/04/27 01:24:26;;;;;;;4.40;3.30;;;;;8.90;101911.00;;;;5068231;28;20210;-75
2023/04/27 01:26:53;;;;;;;2.90;2.60;;;;;8.90;101919.00;;;;5068388;28;20202;-76
2023/04/27 01:29:21;;;;;;;3.47;2.72;;;;;8.90;101919.00;;;;5065975;28;20203;-75
2023/04/27 01:31:48;;;;;;;4.97;3.10;;;;;8.90;101926.00;;;;5068344;28;20260;-75
2023/04/27 01:34:15;;;;;;;4.63;3.00;;;;;8.80;101931.00;;;;5050953;28;20195;-75
2023/04/27 01:36:43;;;;;;;4.10;3.10;;;;;8.80;101922.00;;;;5067859;28;20304;-75
2023/04/27 01:39:10;;;;;;;5.50;2.78;;;;;8.80;101915.00;;;;5068218;28;20234;-76
2023/04/27 01:41:39;;;;;;;3.83;2.30;;;;;8.80;101904.00;;;;5068279;28;20194;-75
2023/04/27 01:44:06;;;;;;;4.97;2.90;;;;;8.80;101902.00;;;;5068083;28;20206;-75
2023/04/27 01:46:33;;;;;;;3.95;2.58;;;;;8.80;101904.00;;;;5067276;28;20195;-75
2023/04/27 01:49:01;;;;;;;4.50;2.97;;;;;8.70;101892.00;;;;5067555;28;20203;-76
2023/04/27 01:51:28;;;;;;;5.22;2.83;;;;;8.70;101894.00;;;;5066812;28;20285;-75
2023/04/27 01:53:55;;;;;;;3.25;2.60;;;;;8.70;101895.00;;;;5068032;28;20203;-75
2023/04/27 01:56:23;;;;;;;4.95;3.15;;;;;8.70;101902.00;;;;5068560;28;20819;-76
2023/04/27 01:58:53;;;;;;;4.60;3.00;;;;;8.70;101892.00;;;;5068113;28;20238;-76
2023/04/27 02:01:20;;;;;;;3.90;2.50;;;;;8.70;101891.00;;;;5067466;28;20210;-75
2023/04/27 02:03:48;;;;;;;4.47;3.13;;;;;8.70;101890.00;;;;5053459;28;20287;-75
2023/04/27 02:06:15;;;;;;;3.08;2.60;;;;;8.70;101893.00;;;;5065746;28;20195;-75
2023/04/27 02:08:42;;;;;;;3.70;2.83;;;;;8.60;101885.00;;;;5066907;28;20206;-76
2023/04/27 02:11:09;;;;;;;4.00;2.60;;;;;8.60;101890.00;;;;5047621;28;20196;-75
2023/04/27 02:13:37;;;;;;;5.93;2.88;;;;;8.60;101889.00;;;;5060385;28;20233;-75
2023/04/27 02:16:06;;;;;;;4.03;2.33;;;;;8.60;101902.00;;;;5067944;28;20222;-76
2023/04/27 02:18:33;;;;;;;5.40;3.45;;;;;8.60;101900.00;;;;5067793;28;20222;-76
2023/04/27 02:21:01;;;;;;;2.97;2.50;;;;;8.60;101894.00;;;;5067622;28;20203;-75
2023/04/27 02:23:28;;;;;;;4.75;3.13;;;;;8.60;101894.00;;;;5068104;28;20202;-75
2023/04/27 02:25:55;;;;;;;4.85;2.78;;;;;8.50;101891.00;;;;5066673;28;20231;-75
2023/04/27 02:28:22;;;;;;;4.63;2.85;;;;;8.50;101893.00;;;;5067777;28;20724;-75
2023/04/27 02:30:50;;;;;;;4.65;2.60;;;;;8.50;101894.00;;;;5067477;28;20203;-76
2023/04/27 02:33:18;;;;;;;3.58;2.50;;;;;8.50;101892.00;;;;5067141;28;20226;-76
2023/04/27 02:35:46;;;;;;;3.50;2.55;;;;;8.50;101896.00;;;;5068067;28;20210;-75
2023/04/27 02:38:13;;;;;;;3.63;2.47;;;;;8.50;101889.00;;;;5066352;28;20234;-76
2023/04/27 02:40:40;;;;;;;3.80;2.70;;;;;8.50;101880.00;;;;5069422;28;20645;-75
2023/04/27 02:43:08;;;;;;;4.63;3.20;;;;;8.40;101881.00;;;;5070189;28;20206;-75
2023/04/27 02:45:38;;;;;;;3.83;2.40;;;;;8.40;101878.00;;;;5070736;28;20195;-75
2023/04/27 02:48:05;;;;;;;3.95;3.13;;;;;8.40;101879.00;;;;5071305;28;20199;-76
2023/04/27 02:50:34;;;;;;;4.05;2.83;;;;;8.40;101876.00;;;;5070796;28;20703;-76
2023/04/27 02:53:01;;;;;;;4.25;2.58;;;;;8.40;101869.00;;;;5071369;28;20194;-75
2023/04/27 02:55:28;;;;;;;4.40;2.58;;;;;8.40;101870.00;;;;5071089;28;20241;-75
2023/04/27 02:57:56;;;;;;;3.08;2.50;;;;;8.40;101870.00;;;;5070941;28;20199;-75
2023/04/27 03:00:23;;;;;;;3.35;2.42;;;;;8.30;101870.00;;;;5070462;28;21033;-75
2023/04/27 03:02:50;;;;;;;3.17;2.47;;;;;8.30;101878.00;;;;5061734;28;20203;-76
2023/04/27 03:05:18;;;;;;;3.55;2.50;;;;;8.30;101881.00;;;;5050658;28;20206;-76
2023/04/27 03:07:47;;;;;;;4.43;2.55;;;;;8.30;101883.00;;;;5050621;28;20203;-75
2023/04/27 03:10:14;;;;;;;3.63;2.47;;;;;8.30;101880.00;;;;5050978;28;20200;-75
2023/04/27 03:12:41;;;;;;;3.28;2.60;;;;;8.30;101882.00;;;;5050370;28;20684;-75
2023/04/27 03:15:10;;;;;;;3.08;2.40;;;;;8.30;101877.00;;;;5050539;28;20203;-75
2023/04/27 03:17:37;;;;;;;4.22;2.47;;;;;8.30;101884.00;;;;5050974;28;20203;-75
2023/04/27 03:20:08;;;;;;;3.75;2.20;;;;;8.30;101889.00;;;;5050274;28;20223;-76
2023/04/27 03:22:36;;;;;;;3.58;2.55;;;;;8.30;101887.00;;;;5049877;28;20278;-75
2023/04/27 03:25:05;;;;;;;3.00;2.53;;;;;8.20;101888.00;;;;5049867;28;20211;-75
2023/04/27 03:27:32;;;;;;;3.08;2.22;;;;;8.30;101894.00;;;;5049643;28;20231;-75
2023/04/27 03:30:00;;;;;;;3.17;2.47;;;;;8.20;101891.00;;;;5050258;28;20199;-75
2023/04/27 03:32:27;;;;;;;3.42;2.10;;;;;8.20;101891.00;;;;5050093;28;20589;-75
2023/04/27 03:34:55;;;;;;;2.90;2.08;;;;;8.20;101889.00;;;;5050194;28;20669;-75
2023/04/27 03:37:22;;;;;;;3.80;2.20;;;;;8.20;101883.00;;;;5049344;28;20203;-75
2023/04/27 03:39:49;;;;;;;4.05;2.47;;;;;8.20;101883.00;;;;5049247;28;20238;-76
2023/04/27 03:42:18;;;;;;;3.10;2.13;;;;;8.20;101885.00;;;;5049841;28;20204;-75
2023/04/27 03:44:45;;;;;;;4.32;2.20;;;;;8.20;101884.00;;;;5049245;28;20194;-75
2023/04/27 03:47:12;;;;;;;2.15;1.88;;;;;8.20;101891.00;;;;5049381;28;20199;-75
2023/04/27 03:49:40;;;;;;;2.88;2.10;;;;;8.20;101895.00;;;;5049660;28;20222;-75
2023/04/27 03:52:07;;;;;;;3.40;2.20;;;;;8.20;101891.00;;;;5050247;28;20211;-76
2023/04/27 03:54:35;;;;;;;3.13;1.95;;;;;8.20;101888.00;;;;5049340;28;20198;-75
2023/04/27 03:57:03;;;;;;;3.15;2.10;;;;;8.20;101887.00;;;;5049460;28;20750;-75
2023/04/27 03:59:31;;;;;;;2.22;1.77;;;;;8.20;101887.00;;;;5049766;28;20588;-75
2023/04/27 04:01:59;;;;;;;3.67;2.22;;;;;8.20;101888.00;;;;5049405;28;20990;-75
2023/04/27 04:04:26;;;;;;;2.55;1.85;;;;;8.20;101888.00;;;;5063157;28;20657;-75
2023/04/27 04:06:53;;;;;;;2.42;1.90;;;;;8.20;101896.00;;;;5069613;28;20202;-75
2023/04/27 04:09:21;;;;;;;3.03;1.77;;;;;8.20;101902.00;;;;5059706;28;20203;-75
2023/04/27 04:11:48;;;;;;;3.85;2.20;;;;;8.20;101900.00;;;;5049548;28;20214;-75
2023/04/27 04:14:15;;;;;;;4.10;2.17;;;;;8.20;101896.00;;;;5049289;28;20195;-76
2023/04/27 04:16:44;;;;;;;2.47;1.60;;;;;8.20;101888.00;;;;5049649;28;20196;-75
2023/04/27 04:19:11;;;;;;;3.72;2.03;;;;;8.20;101892.00;;;;5049579;28;20226;-75
2023/04/27 04:21:38;;;;;;;3.20;1.92;;;;;8.20;101906.00;;;;5049391;28;20206;-75
2023/04/27 04:24:06;;;;;;;5.03;2.00;;;;;8.20;101903.00;;;;5049098;28;21163;-76
2023/04/27 04:26:34;;;;;;;3.25;1.80;;;;;8.20;101894.00;;;;5049435;28;20241;-75
2023/04/27 04:29:01;;;;;;;2.67;1.90;;;;;8.20;101902.00;;;;5049786;28;20203;-75
2023/04/27 04:31:29;;;;;;;3.85;1.75;;;;;8.20;101905.00;;;;5051701;28;20206;-76
2023/04/27 04:33:57;;;;;;;4.50;1.85;;;;;8.20;101914.00;;;;5050177;28;20731;-75
2023/04/27 04:36:25;;;;;;;3.00;1.98;;;;;8.20;101907.00;;;;5069194;28;20211;-75
2023/04/27 04:38:53;;;;;;;3.58;2.10;;;;;8.20;101918.00;;;;5068245;28;20223;-76
2023/04/27 04:41:21;;;;;;;2.67;2.08;;;;;8.20;101914.00;;;;5068163;28;20544;-76
2023/04/27 04:43:48;;;;;;;2.67;1.73;;;;;8.20;101915.00;;;;5048491;28;20876;-75
2023/04/27 04:46:15;;;;;;;2.20;1.70;;;;;8.30;101927.00;;;;5047504;28;20206;-76
2023/04/27 04:48:42;;;;;;;1.85;1.60;;;;;8.30;101924.00;;;;5048212;28;20207;-75
2023/04/27 04:51:11;;;;;;;2.00;1.73;;;;;8.30;101929.00;;;;5048613;28;20206;-75
2023/04/27 04:53:38;;;;;;;7.40;2.50;;;;;8.30;101923.00;;;;5048056;28;20200;-76
2023/04/27 04:56:09;;;;;;;2.97;2.03;;;;;8.30;101927.00;;;;5048240;28;20207;-75
2023/04/27 04:58:37;;;;;;;2.03;1.55;;;;;8.40;101923.00;;;;5066775;28;20211;-76
2023/04/27 05:01:04;;;;;;;3.33;2.08;;;;;8.40;101927.00;;;;5068253;28;20191;-76
2023/04/27 05:03:31;;;;;;;4.05;1.98;;;;;8.40;101931.00;;;;5062693;28;20670;-75
2023/04/27 05:05:59;;;;;;;4.35;1.90;;;;;8.50;101925.00;;;;5048246;28;20231;-76
2023/04/27 05:08:27;;;;;;;4.82;1.83;;;;;8.50;101930.00;;;;5057473;28;20198;-75
2023/04/27 05:10:55;;;;;;;4.28;2.17;;;;;8.60;101929.00;;;;5067393;28;20214;-76
2023/04/27 05:13:23;;;;;;;2.53;1.77;;;;;8.60;101921.00;;;;5067721;28;20548;-75
2023/04/27 05:15:51;;;;;;;2.25;2.00;;;;;8.70;101921.00;;;;5067254;28;20211;-76
2023/04/27 05:18:18;;;;;;;2.60;1.65;;;;;8.70;101925.00;;;;5067694;28;20564;-76
2023/04/27 05:20:46;;;;;;;2.20;1.63;;;;;8.80;101919.00;;;;5067879;28;20227;-75
2023/04/27 05:23:13;;;;;;;3.42;2.08;;;;;8.90;101925.00;;;;5067835;28;20211;-75
2023/04/27 05:25:42;;;;;;;3.25;1.92;;;;;8.90;101931.00;;;;5067360;28;20218;-76
2023/04/27 05:28:09;;;;;;;3.15;1.98;;;;;9.00;101927.00;;;;5051579;28;20195;-75
2023/04/27 05:30:37;;;;;;;3.42;2.03;;;;;9.10;101930.00;;;;5047552;28;20689;-76
2023/04/27 05:33:05;;;;;;;5.13;1.58;;;;;9.10;101935.00;;;;5048221;28;20592;-76
2023/04/27 05:35:32;;;;;;;2.28;1.45;;;;;9.20;101928.00;;;;5047903;28;20208;-76
2023/04/27 05:37:59;;;;;;;2.58;1.90;;;;;9.30;101938.00;;;;5047194;28;20196;-75
2023/04/27 05:40:27;;;;;;;3.97;1.85;;;;;9.40;101938.00;;;;5047802;28;20234;-76
2023/04/27 05:42:55;;;;;;;2.85;1.70;;;;;9.50;101937.00;;;;5047802;28;20203;-75
2023/04/27 05:45:23;;;;;;;5.45;2.40;;;;;9.60;101932.00;;;;5048776;28;20206;-75
2023/04/27 05:47:50;;;;;;;3.63;2.60;;;;;9.70;101923.00;;;;5062952;28;20187;-76
2023/04/27 05:50:17;;;;;;;4.70;2.45;;;;;9.80;101926.00;;;;5067089;28;20218;-75
2023/04/27 05:52:45;;;;;;;4.78;2.90;;;;;9.90;101929.00;;;;5067453;28;20214;-76
2023/04/27 05:55:12;;;;;;;3.38;2.42;;;;;10.00;101932.00;;;;5062619;28;20630;-76
2023/04/27 05:57:40;;;;;;;5.00;2.53;;;;;10.20;101935.00;;;;5066570;28;20202;-75
2023/04/27 06:00:11;;;;;;;3.60;2.67;;;;;10.20;101933.00;;;;5067029;28;20315;-76
2023/04/27 06:02:38;;;;;;;4.10;2.67;;;;;10.40;101932.00;;;;5067360;28;20203;-75
2023/04/27 06:05:06;;;;;;;4.25;2.97;;;;;10.50;101927.00;;;;5050014;28;20192;-76
2023/04/27 06:07:34;;;;;;;3.75;2.80;;;;;10.60;101936.00;;;;5047762;28;20278;-76
2023/04/27 06:10:02;;;;;;;4.00;2.33;;;;;10.70;101937.00;;;;5047528;28;20192;-76
2023/04/27 06:12:29;;;;;;;3.85;2.90;;;;;10.80;101938.00;;;;5047543;28;20206;-75
2023/04/27 06:14:56;;;;;;;6.22;2.92;;;;;10.90;101939.00;;;;5048270;28;20203;-76
2023/04/27 06:17:25;;;;;;;6.13;3.03;;;;;11.00;101942.00;;;;5051521;28;20207;-76
2023/04/27 06:19:52;;;;;;;5.18;3.13;;;;;11.10;101934.00;;;;5050627;28;20230;-76
2023/04/27 06:22:19;;;;;;;6.88;3.47;;;;;11.20;101939.00;;;;5050862;28;20579;-76
2023/04/27 06:24:47;;;;;;;6.00;3.45;;;;;11.30;101942.00;;;;5052208;28;20219;-76
2023/04/27 06:27:14;;;;;;;6.20;3.75;;;;;11.40;101935.00;;;;5071080;28;20203;-76
2023/04/27 06:29:41;;;;;;;7.10;2.97;;;;;11.50;101934.00;;;;5070364;28;20304;-75
2023/04/27 06:32:08;;;;;;;4.30;3.17;;;;;11.60;101945.00;;;;5070560;28;20246;-75
2023/04/27 06:34:37;;;;;;;4.43;3.05;;;;;11.70;101944.00;;;;5067452;28;20235;-76
2023/04/27 06:37:04;;;;;;;5.82;2.72;;;;;11.80;101953.00;;;;5050402;28;20576;-76
2023/04/27 06:39:32;;;;;;;3.80;2.63;;;;;11.80;101940.00;;;;5050375;28;20684;-76
2023/04/27 06:41:59;;;;;;;3.38;2.47;;;;;11.90;101944.00;;;;5050739;28;20584;-76
2023/04/27 06:44:26;;;;;;;4.38;2.40;;;;;12.00;101946.00;;;;5050565;28;20200;-76
2023/04/27 06:46:53;;;;;;;2.45;2.10;;;;;12.10;101948.00;;;;5050606;28;20196;-76
2023/04/27 06:49:21;;;;;;;5.78;2.35;;;;;12.20;101949.00;;;;5050993;28;20199;-76
2023/04/27 06:51:50;;;;;;;3.22;2.00;;;;;12.30;101946.00;;;;5049918;28;20202;-76
2023/04/27 06:54:17;;;;;;;3.10;2.10;;;;;12.40;101949.00;;;;5050820;28;20207;-75
2023/04/27 06:56:44;;;;;;;2.72;2.05;;;;;12.50;101949.00;;;;5050405;28;20211;-76
2023/04/27 06:59:12;;;;;;;3.78;1.73;;;;;12.60;101950.00;;;;5050142;28;20580;-76
2023/04/27 07:01:39;;;;;;;4.30;2.50;;;;;12.70;101939.00;;;;5063026;28;20202;-76
2023/04/27 07:04:07;;;;;;;4.53;1.90;;;;;12.80;101938.00;;;;5061571;28;20199;-76
2023/04/27 07:06:34;;;;;;;3.97;2.20;;;;;12.90;101945.00;;;;5052867;28;20221;-75
2023/04/27 07:09:04;;;;;;;3.20;2.30;;;;;13.00;101946.00;;;;5070087;28;20202;-75
2023/04/27 07:11:31;;;;;;;4.47;1.98;;;;;13.10;101947.00;;;;5070377;28;20235;-76
2023/04/27 07:13:59;;;;;;;2.50;1.95;;;;;13.20;101945.00;;;;5069807;28;20195;-76
2023/04/27 07:16:26;;;;;;;4.43;2.40;;;;;13.30;101964.00;;;;5052784;28;20213;-76
2023/04/27 07:18:53;;;;;;;3.22;1.98;;;;;13.40;101958.00;;;;5049757;28;20211;-76
2023/04/27 07:21:20;;;;;;;5.30;1.55;;;;;13.50;101960.00;;;;5049650;28;20227;-76
2023/04/27 07:23:48;;;;;;;3.13;1.92;;;;;13.60;101962.00;;;;5049070;28;20231;-76
2023/04/27 07:26:16;;;;;;;3.15;2.17;;;;;13.70;101964.00;;;;5050111;28;20215;-76
2023/04/27 07:28:46;;;;;;;2.72;1.95;;;;;13.80;101962.00;;;;5049545;28;20199;-76
2023/04/27 07:31:14;;;;;;;2.90;2.10;;;;;13.90;101961.00;;;;5049833;28;20200;-76
2023/04/27 07:33:41;;;;;;;4.05;1.90;;;;;14.00;101954.00;;;;5059559;28;20309;-76
2023/04/27 07:36:09;;;;;;;4.18;2.05;;;;;14.10;101952.00;;;;5048749;28;20796;-76
2023/04/27 07:38:37;;;;;;;1.80;1.60;;;;;14.20;101953.00;;;;5049794;28;20203;-76
2023/04/27 07:41:06;;;;;;;3.33;1.90;;;;;14.30;101959.00;;;;5049380;28;20231;-77
2023/04/27 07:43:35;;;;;;;1.85;1.60;;;;;14.30;101946.00;;;;5050323;28;20657;-76
2023/04/27 07:46:02;;;;;;;4.10;1.63;;;;;14.50;101947.00;;;;5049915;28;20260;-76
2023/04/27 07:48:29;;;;;;;2.28;1.52;;;;;14.60;101941.00;;;;5050513;28;20572;-76
2023/04/27 07:50:57;;;;;;;1.95;1.75;;;;;14.70;101944.00;;;;5069100;28;20191;-76
2023/04/27 07:53:24;;;;;;;3.28;1.95;;;;;14.80;101944.00;;;;5069367;28;20199;-76
2023/04/27 07:55:51;;;;;;;2.58;1.60;;;;;15.00;101957.00;;;;5069268;28;20210;-76
2023/04/27 07:58:20;;;;;;;2.58;1.80;;;;;15.10;101960.00;;;;5069083;28;20198;-76
2023/04/27 08:00:48;;;;;;;3.20;1.83;;;;;15.20;101967.00;;;;5068958;28;20233;-76
2023/04/27 08:03:15;;;;;;;2.70;2.13;;;;;15.30;101966.00;;;;5068466;28;20202;-76
2023/04/27 08:05:43;;;;;;;3.83;1.90;;;;;15.40;101967.00;;;;5048833;28;20207;-76
2023/04/27 08:08:10;;;;;;;5.60;2.15;;;;;15.50;101958.00;;;;5048939;28;20203;-77
2023/04/27 08:10:38;;;;;;;3.67;2.22;;;;;15.60;101961.00;;;;5048622;28;20203;-75
2023/04/27 08:13:08;;;;;;;2.08;1.77;;;;;15.80;101969.00;;;;5048646;28;20199;-76
2023/04/27 08:15:35;;;;;;;4.45;1.92;;;;;15.80;101971.00;;;;5048773;28;20254;-77
2023/04/27 08:18:05;;;;;;;2.30;2.00;;;;;15.90;101967.00;;;;5048225;28;20286;-76
2023/04/27 08:20:32;;;;;;;2.80;1.73;;;;;16.10;101961.00;;;;5048853;28;20317;-76
2023/04/27 08:22:59;;;;;;;5.60;1.70;;;;;16.20;101970.00;;;;5054322;28;20660;-76
2023/04/27 08:25:26;;;;;;;2.97;2.03;;;;;16.30;101970.00;;;;5067951;28;20223;-76
2023/04/27 08:27:54;;;;;;;4.03;2.08;;;;;16.40;101967.00;;;;5067793;28;20695;-76
2023/04/27 08:30:21;;;;;;;3.72;2.13;;;;;16.50;101964.00;;;;5068871;28;20202;-76
2023/04/27 08:32:48;;;;;;;3.00;2.10;;;;;16.60;101962.00;;;;5067973;28;20265;-77
2023/04/27 08:35:17;;;;;;;4.15;1.90;;;;;16.70;101966.00;;;;5066153;28;20203;-77
2023/04/27 08:37:44;;;;;;;3.83;2.15;;;;;16.80;101957.00;;;;5047485;28;20200;-77
2023/04/27 08:40:12;;;;;;;3.70;1.90;;;;;16.80;101961.00;;;;5048886;28;20224;-77
2023/04/27 08:42:53;;;;;;;2.17;1.65;;;;;16.90;101960.00;;;;5048221;28;20212;-77
2023/04/27 08:45:22;;;;;;;2.30;1.83;;;;;17.00;101957.00;;;;5048579;28;20207;-76
2023/04/27 08:47:49;;;;;;;2.13;1.70;;;;;17.10;101957.00;;;;5048005;28;20204;-77
2023/04/27 08:50:18;;;;;;;3.33;1.67;;;;;17.10;101954.00;;;;5047946;28;20199;-77
2023/04/27 08:52:46;;;;;;;4.30;1.73;;;;;17.20;101954.00;;;;5048381;28;20211;-77
2023/04/27 08:55:13;;;;;;;4.13;1.60;;;;;17.30;101953.00;;;;5048350;28;20191;-76
2023/04/27 08:57:40;;;;;;;1.70;1.40;;;;;17.40;101957.00;;;;5048506;28;20214;-77
2023/04/27 09:00:12;;;;;;;2.25;1.77;;;;;17.40;101958.00;;;;5048211;28;20280;-77
2023/04/27 09:02:46;;;;;;;2.20;1.58;;;;;17.50;101958.00;;;;5047859;28;20213;-77
2023/04/27 09:05:18;;;;;;;3.28;1.75;;;;;17.50;101955.00;;;;5048035;28;20680;-77
2023/04/27 09:07:57;;;;;;;4.22;1.98;;;;;17.60;101960.00;;;;5048188;28;20210;-77
2023/04/27 09:10:24;;;;;;;2.10;1.90;;;;;17.70;101952.00;;;;5048349;28;20238;-76
2023/04/27 09:12:56;;;;;;;1.67;1.23;;;;;17.70;101951.00;;;;5047132;28;20195;-76
2023/04/27 09:15:24;;;;;;;2.38;1.20;;;;;17.80;101956.00;;;;5048518;28;20248;-76
2023/04/27 09:17:55;;;;;;;2.83;1.23;;;;;17.80;101955.00;;;;5047474;28;20203;-77
2023/04/27 09:20:25;;;;;;;1.80;1.20;;;;;17.80;101952.00;;;;5048136;28;20519;-77
2023/04/27 09:22:54;;;;;;;2.42;1.48;;;;;17.90;101950.00;;;;5047613;28;20654;-76
2023/04/27 09:25:26;;;;;;;2.38;1.58;;;;;17.80;101949.00;;;;5047636;28;20246;-77
2023/04/27 09:27:53;;;;;;;4.15;1.60;;;;;18.00;101942.00;;;;5047057;28;20200;-77
2023/04/27 09:30:21;;;;;;;3.45;1.75;;;;;18.00;101944.00;;;;5048817;28;20207;-77
2023/04/27 09:32:53;;;;;;;2.55;1.80;;;;;18.10;101943.00;;;;5047111;28;20271;-77
2023/04/27 09:35:26;;;;;;;2.70;1.70;;;;;18.20;101949.00;;;;5048133;28;20191;-77
2023/04/27 09:37:54;;;;;;;4.25;1.80;;;;;18.30;101943.00;;;;5047117;28;20188;-77
2023/04/27 09:40:26;;;;;;;2.72;1.30;;;;;18.40;101940.00;;;;5047179;28;20701;-77
2023/04/27 09:42:55;;;;;;;2.58;1.70;;;;;18.40;101942.00;;;;5047462;28;20204;-76
2023/04/27 09:45:23;;;;;;;2.47;1.50;;;;;18.50;101940.00;;;;5048063;28;20242;-77
2023/04/27 09:47:51;;;;;;;2.78;1.70;;;;;18.60;101939.00;;;;5051387;28;20696;-77
2023/04/27 09:50:19;;;;;;;3.53;1.70;;;;;18.60;101946.00;;;;5071044;28;20210;-77
2023/04/27 09:52:47;;;;;;;2.53;1.40;;;;;18.70;101942.00;;;;5071845;28;20540;-76
2023/04/27 09:55:18;;;;;;;2.03;1.60;;;;;18.70;101944.00;;;;5071517;28;20210;-77
2023/04/27 09:57:53;;;;;;;2.92;1.75;;;;;18.80;101935.00;;;;5071417;28;20206;-76
2023/04/27 10:00:38;;;;;;;2.40;1.83;;;;;18.90;101932.00;;;;5070742;28;20229;-76
2023/04/27 10:03:16;;;;;;;2.33;1.77;;;;;18.90;101938.00;;;;5071272;28;20301;-76
2023/04/27 10:06:05;;;;;;;2.05;1.58;;;;;19.00;101934.00;;;;5052144;28;20199;-76
2023/04/27 10:08:36;;;;;;;2.92;2.00;;;;;19.20;101939.00;;;;5037010;28;20203;-76
2023/04/27 10:11:15;;;;;;;3.97;1.92;;;;;19.20;101936.00;;;;5051291;28;20200;-76
2023/04/27 10:13:52;;;;;;;2.63;1.88;;;;;19.40;101940.00;;;;5050931;28;20268;-77
2023/04/27 10:16:20;;;;;;;3.97;2.03;;;;;19.50;101943.00;;;;5051648;28;20292;-76
2023/04/27 10:18:52;;;;;;;1.80;1.67;;;;;19.60;101932.00;;;;5050412;28;20566;-77
2023/04/27 10:21:20;;;;;;;3.25;2.33;;;;;19.80;101936.00;;;;5051823;28;20229;-77
2023/04/27 10:23:50;;;;;;;2.20;2.00;;;;;19.80;101941.00;;;;5050000;28;20206;-76
2023/04/27 10:26:24;;;;;;;2.85;1.88;;;;;19.80;101937.00;;;;5051777;28;20768;-76
2023/04/27 10:29:04;;;;;;;3.05;1.90;;;;;19.90;101935.00;;;;5050432;28;20213;-76
2023/04/27 10:31:32;;;;;;;2.90;2.28;;;;;20.00;101942.00;;;;5050880;28;20214;-76
2023/04/27 10:34:09;;;;;;;4.32;3.15;;;;;20.00;101939.00;;;;5050816;28;20636;-77
2023/04/27 10:36:38;;;;;;;2.08;1.65;;;;;20.10;101935.00;;;;5051511;28;20650;-76
2023/04/27 10:39:17;;;;;;;2.28;1.83;;;;;20.10;101939.00;;;;5050649;28;20205;-77
2023/04/27 10:41:52;;;;;;;5.55;1.85;;;;;20.10;101949.00;;;;5050914;28;20236;-76
2023/04/27 10:44:24;;;;;;;3.70;1.90;;;;;20.10;101938.00;;;;5050114;28;20898;-77
2023/04/27 10:46:52;;;;;;;4.03;1.63;;;;;20.10;101932.00;;;;5050130;28;20207;-76
2023/04/27 10:49:20;;;;;;;3.08;1.60;;;;;20.10;101929.00;;;;5050854;28;20230;-76
2023/04/27 10:51:48;;;;;;;3.83;2.38;;;;;20.20;101937.00;;;;5050151;28;20510;-77
2023/04/27 10:54:17;;;;;;;2.95;1.88;;;;;20.20;101934.00;;;;5051067;28;20210;-76
2023/04/27 10:56:45;;;;;;;2.63;2.20;;;;;20.20;101928.00;;;;5052003;28;20249;-76
2023/04/27 10:59:12;;;;;;;3.08;1.67;;;;;20.20;101926.00;;;;5050398;28;20196;-77
2023/04/27 11:01:41;;;;;;;2.17;1.92;;;;;20.10;101919.00;;;;5050288;28;20231;-76
2023/04/27 11:04:08;;;;;;;2.95;2.00;;;;;20.10;101928.00;;;;5051356;28;20462;-76
2023/04/27 11:06:44;;;;;;;3.22;2.22;;;;;20.10;101926.00;;;;5050400;28;20596;-76
2023/04/27 11:09:12;;;;;;;2.17;1.50;;;;;20.20;101923.00;;;;5050685;28;20204;-76
2023/04/27 11:11:45;;;;;;;2.75;1.77;;;;;20.10;101917.00;;;;5050939;28;20196;-77
2023/04/27 11:14:19;;;;;;;2.80;2.10;;;;;20.10;101910.00;;;;5050734;28;20203;-77
2023/04/27 11:16:47;;;;;;;2.40;2.17;;;;;20.20;101899.00;;;;5050389;28;20290;-76
2023/04/27 11:19:14;;;;;;;2.60;2.05;;;;;20.30;101903.00;;;;5050030;28;20673;-77
2023/04/27 11:21:42;;;;;;;2.67;2.03;;;;;20.30;101897.00;;;;5050423;28;20229;-76
2023/04/27 11:24:09;;;;;;;2.65;1.92;;;;;20.30;101897.00;;;;5050123;28;20685;-76
2023/04/27 11:26:37;;;;;;;1.90;1.75;;;;;20.40;101892.00;;;;5050695;28;20717;-76
2023/04/27 11:29:09;;;;;;;2.67;1.85;;;;;20.40;101885.00;;;;5049995;28;20211;-78
2023/04/27 11:31:42;;;;;;;2.22;2.03;;;;;20.40;101878.00;;;;5050692;28;20207;-76
2023/04/27 11:34:14;;;;;;;2.30;2.10;;;;;20.50;101865.00;;;;5050684;28;20231;-77
2023/04/27 11:36:42;;;;;;;3.33;2.10;;;;;20.50;101879.00;;;;5050092;28;20207;-77
2023/04/27 11:39:16;;;;;;;5.20;2.28;;;;;20.60;101870.00;;;;5063226;28;20202;-76
2023/04/27 11:41:45;;;;;;;2.78;2.05;;;;;20.60;101874.00;;;;5069806;28;20226;-76
2023/04/27 11:44:13;;;;;;;2.95;1.77;;;;;20.70;101873.00;;;;5069691;28;20675;-77
2023/04/27 11:46:46;;;;;;;3.72;1.70;;;;;20.70;101864.00;;;;5069112;28;20211;-77
2023/04/27 11:49:14;;;;;;;2.40;2.20;;;;;20.80;101876.00;;;;5070076;28;20612;-76
2023/04/27 11:51:43;;;;;;;2.50;2.30;;;;;20.80;101870.00;;;;5070048;28;21033;-77
2023/04/27 11:54:11;;;;;;;10.70;2.55;;;;;20.90;101875.00;;;;5069315;28;20210;-77
2023/04/27 11:56:39;;;;;;;2.88;2.03;;;;;20.90;101862.00;;;;5070528;28;20245;-77
2023/04/27 11:59:19;;;;;;;2.72;2.50;;;;;21.00;101859.00;;;;5069361;28;20194;-77
2023/04/27 12:01:46;;;;;;;3.40;2.80;;;;;21.00;101854.00;;;;5069961;28;20321;-77
2023/04/27 12:04:13;;;;;;;3.15;2.17;;;;;21.10;101857.00;;;;5066543;28;20199;-77
2023/04/27 12:06:41;;;;;;;3.63;2.75;;;;;21.10;101854.00;;;;5069652;28;20195;-77
2023/04/27 12:09:08;;;;;;;2.85;2.22;;;;;21.10;101857.00;;;;5066045;28;20205;-76
2023/04/27 12:11:35;;;;;;;4.85;2.65;;;;;21.10;101861.00;;;;5049390;28;20195;-76
2023/04/27 12:14:03;;;;;;;2.42;2.15;;;;;21.20;101864.00;;;;5048569;28;20203;-76
2023/04/27 12:16:32;;;;;;;3.33;2.10;;;;;21.20;101870.00;;;;5049405;28;20208;-76
2023/04/27 12:19:00;;;;;;;2.33;2.13;;;;;21.20;101850.00;;;;5049294;28;20696;-77